Time,TemperatureF,DewpointF,PressureIn,WindDirection,WindDirectionDegrees,WindSpeedMPH,WindSpeedGustMPH,Humidity,HourlyPrecipIn,Conditions,Clouds,dailyrainin,SolarRadiationWatts/m^2,SoftwareType,DateUTC
2013-10-05 00:05:00,77.8,72.2,29.93,East,96,0.0,0.0,83,0.00,,,0.00,0,Wunderground v.1.15,2013-10-05 04:05:00,
2013-10-05 00:10:00,77.7,72.5,29.92,East,96,0.0,0.0,84,0.00,,,0.00,0,Wunderground v.1.15,2013-10-05 04:10:00,
2013-10-05 00:20:00,77.4,72.2,29.92,East,96,0.0,0.0,84,0.00,,,0.00,0,Wunderground v.1.15,2013-10-05 04:20:00,
2013-10-05 00:25:00,77.3,72.4,29.92,ESE,118,0.0,0.0,85,0.00,,,0.00,0,Wunderground v.1.15,2013-10-05 04:25:00,
2013-10-05 00:30:00,77.2,72.3,29.92,ESE,118,0.0,0.0,85,0.00,,,0.00,0,Wunderground v.1.15,2013-10-05 04:30:00,
2013-10-05 00:40:00,77.0,72.5,29.93,ESE,117,0.0,0.0,86,0.00,,,0.00,0,Wunderground v.1.15,2013-10-05 04:40:00,
2013-10-05 00:45:00,76.9,72.4,29.92,ESE,117,0.0,0.0,86,0.00,,,0.00,0,Wunderground v.1.15,2013-10-05 04:45:00,
2013-10-05 00:55:00,76.6,72.4,29.92,ESE,117,0.0,0.0,87,0.00,,,0.00,0,Wunderground v.1.15,2013-10-05 04:55:00,
2013-10-05 01:00:00,76.5,72.3,29.93,ESE,117,0.0,0.0,87,0.00,,,0.00,0,Wunderground v.1.15,2013-10-05 05:00:00,
2013-10-05 01:10:00,76.4,72.2,29.93,ESE,117,0.0,0.0,87,0.00,,,0.00,0,Wunderground v.1.15,2013-10-05 05:10:00,
2013-10-05 01:15:00,76.3,72.1,29.93,ESE,117,0.0,0.0,87,0.00,,,0.00,0,Wunderground v.1.15,2013-10-05 05:15:00,
2013-10-05 01:25:00,76.2,72.0,29.93,SE,126,0.0,0.0,87,0.00,,,0.00,0,Wunderground v.1.15,2013-10-05 05:25:00,
2013-10-05 01:30:00,76.1,71.6,29.93,NE,36,0.0,0.0,86,0.00,,,0.00,0,Wunderground v.1.15,2013-10-05 05:30:00,
2013-10-05 01:40:00,76.0,71.8,29.92,South,170,0.0,0.0,87,0.00,,,0.00,0,Wunderground v.1.15,2013-10-05 05:40:00,
2013-10-05 01:45:00,75.9,71.8,29.93,SSE,161,0.0,0.0,87,0.00,,,0.00,0,Wunderground v.1.15,2013-10-05 05:45:00,
2013-10-05 01:55:00,75.7,71.6,29.93,WNW,299,0.0,0.0,87,0.00,,,0.00,0,Wunderground v.1.15,2013-10-05 05:55:00,
2013-10-05 02:00:00,75.7,71.9,29.93,WNW,299,0.0,0.0,88,0.00,,,0.00,0,Wunderground v.1.15,2013-10-05 06:00:00,
2013-10-05 02:10:00,75.5,71.7,29.93,WNW,299,0.0,0.0,88,0.00,,,0.00,0,Wunderground v.1.15,2013-10-05 06:10:00,
2013-10-05 02:15:00,75.3,71.8,29.93,WNW,299,0.0,0.0,89,0.00,,,0.00,0,Wunderground v.1.15,2013-10-05 06:15:00,
2013-10-05 02:25:00,75.1,71.6,29.93,WNW,299,0.0,0.0,89,0.00,,,0.00,0,Wunderground v.1.15,2013-10-05 06:25:00,
2013-10-05 02:35:00,74.8,71.3,29.93,WNW,299,0.0,0.0,89,0.00,,,0.00,0,Wunderground v.1.15,2013-10-05 06:35:00,
2013-10-05 02:45:00,74.5,71.4,29.93,WNW,299,0.0,0.0,90,0.00,,,0.00,0,Wunderground v.1.15,2013-10-05 06:45:00,
2013-10-05 02:50:00,74.4,71.6,29.93,WNW,299,0.0,0.0,91,0.00,,,0.00,0,Wunderground v.1.15,2013-10-05 06:50:00,
2013-10-05 03:00:00,74.1,71.3,29.93,WNW,299,0.0,0.0,91,0.00,,,0.00,0,Wunderground v.1.15,2013-10-05 07:00:00,
2013-10-05 03:10:00,73.9,71.4,29.93,WNW,299,0.0,0.0,92,0.00,,,0.00,0,Wunderground v.1.15,2013-10-05 07:10:00,
2013-10-05 03:20:00,73.6,71.1,29.93,WNW,300,0.0,0.0,92,0.00,,,0.00,0,Wunderground v.1.15,2013-10-05 07:20:00,
2013-10-05 03:30:00,73.3,70.8,29.93,WNW,300,0.0,0.0,92,0.00,,,0.00,0,Wunderground v.1.15,2013-10-05 07:30:00,
2013-10-05 03:40:00,73.2,71.1,29.93,WNW,300,0.0,0.0,93,0.00,,,0.00,0,Wunderground v.1.15,2013-10-05 07:40:00,
2013-10-05 03:50:00,73.0,70.9,29.93,WNW,300,0.0,0.0,93,0.00,,,0.00,0,Wunderground v.1.15,2013-10-05 07:50:00,
2013-10-05 03:55:00,72.9,70.8,29.93,WNW,300,0.0,0.0,93,0.00,,,0.00,0,Wunderground v.1.15,2013-10-05 07:55:00,
2013-10-05 04:05:00,72.7,70.9,29.93,WNW,300,0.0,0.0,94,0.00,,,0.00,0,Wunderground v.1.15,2013-10-05 08:05:00,
2013-10-05 04:15:00,72.6,70.8,29.92,WNW,300,0.0,0.0,94,0.00,,,0.00,0,Wunderground v.1.15,2013-10-05 08:15:00,
2013-10-05 04:25:00,72.5,70.7,29.93,WNW,300,0.0,0.0,94,0.00,,,0.00,0,Wunderground v.1.15,2013-10-05 08:25:00,
2013-10-05 04:30:00,72.4,70.6,29.92,WNW,300,0.0,0.0,94,0.00,,,0.00,0,Wunderground v.1.15,2013-10-05 08:30:00,
2013-10-05 04:40:00,72.2,70.4,29.92,WNW,300,0.0,0.0,94,0.00,,,0.00,0,Wunderground v.1.15,2013-10-05 08:40:00,
2013-10-05 04:50:00,72.1,70.3,29.93,WNW,300,0.0,0.0,94,0.00,,,0.00,0,Wunderground v.1.15,2013-10-05 08:50:00,
2013-10-05 04:55:00,72.0,70.2,29.93,WNW,300,0.0,0.0,94,0.00,,,0.00,0,Wunderground v.1.15,2013-10-05 08:55:00,
2013-10-05 05:05:00,71.9,70.4,29.93,WNW,300,0.0,0.0,95,0.00,,,0.00,0,Wunderground v.1.15,2013-10-05 09:05:00,
2013-10-05 05:15:00,71.8,70.3,29.93,WNW,300,0.0,0.0,95,0.00,,,0.00,0,Wunderground v.1.15,2013-10-05 09:15:00,
2013-10-05 05:25:00,71.7,70.2,29.93,WNW,300,0.0,0.0,95,0.00,,,0.00,0,Wunderground v.1.15,2013-10-05 09:25:00,
2013-10-05 05:30:00,71.7,70.2,29.93,WNW,300,0.0,0.0,95,0.00,,,0.00,0,Wunderground v.1.15,2013-10-05 09:30:00,
2013-10-05 05:40:00,71.5,70.0,29.93,WNW,300,0.0,0.0,95,0.00,,,0.00,0,Wunderground v.1.15,2013-10-05 09:40:00,
2013-10-05 05:45:00,71.5,70.0,29.93,WNW,300,0.0,0.0,95,0.00,,,0.00,0,Wunderground v.1.15,2013-10-05 09:45:00,
2013-10-05 05:55:00,71.4,69.9,29.93,WNW,300,0.0,0.0,95,0.00,,,0.00,0,Wunderground v.1.15,2013-10-05 09:55:00,
2013-10-05 06:00:00,71.2,69.7,29.93,WNW,300,0.0,0.0,95,0.00,,,0.00,0,Wunderground v.1.15,2013-10-05 10:00:00,
2013-10-05 06:10:00,71.1,69.6,29.93,WNW,300,0.0,0.0,95,0.00,,,0.00,0,Wunderground v.1.15,2013-10-05 10:10:00,
2013-10-05 06:20:00,71.1,69.9,29.93,WNW,300,0.0,0.0,96,0.00,,,0.00,0,Wunderground v.1.15,2013-10-05 10:20:00,
2013-10-05 06:25:00,71.0,69.5,29.93,WNW,300,0.0,0.0,95,0.00,,,0.00,0,Wunderground v.1.15,2013-10-05 10:25:00,
2013-10-05 06:30:00,71.0,69.8,29.93,WNW,300,0.0,0.0,96,0.00,,,0.00,0,Wunderground v.1.15,2013-10-05 10:30:00,
2013-10-05 06:40:00,70.9,69.7,29.93,WNW,300,0.0,0.0,96,0.00,,,0.00,0,Wunderground v.1.15,2013-10-05 10:40:00,
2013-10-05 06:50:00,70.8,69.6,29.93,WNW,300,0.0,0.0,96,0.00,,,0.00,0,Wunderground v.1.15,2013-10-05 10:50:00,
2013-10-05 07:00:00,70.8,69.6,29.94,WNW,300,0.0,0.0,96,0.00,,,0.00,0,Wunderground v.1.15,2013-10-05 11:00:00,
2013-10-05 07:10:00,70.7,69.5,29.94,WNW,300,0.0,0.0,96,0.00,,,0.00,0,Wunderground v.1.15,2013-10-05 11:10:00,
2013-10-05 07:20:00,70.6,69.4,29.94,WNW,300,0.0,0.0,96,0.00,,,0.00,0,Wunderground v.1.15,2013-10-05 11:20:00,
2013-10-05 07:30:00,70.6,69.4,29.94,WNW,300,0.0,0.0,96,0.00,,,0.00,0,Wunderground v.1.15,2013-10-05 11:30:00,
2013-10-05 07:35:00,70.6,69.4,29.93,WNW,300,0.0,0.0,96,0.00,,,0.00,0,Wunderground v.1.15,2013-10-05 11:35:00,
2013-10-05 07:45:00,70.6,69.4,29.93,WNW,300,0.0,0.0,96,0.00,,,0.00,0,Wunderground v.1.15,2013-10-05 11:45:00,
2013-10-05 07:55:00,70.7,69.5,29.93,WNW,300,0.0,0.0,96,0.00,,,0.00,0,Wunderground v.1.15,2013-10-05 11:55:00,
2013-10-05 08:00:00,70.8,69.6,29.93,WNW,300,0.0,0.0,96,0.00,,,0.00,0,Wunderground v.1.15,2013-10-05 12:00:00,
2013-10-05 08:05:00,70.8,69.6,29.93,WNW,300,0.0,0.0,96,0.00,,,0.00,0,Wunderground v.1.15,2013-10-05 12:05:00,
2013-10-05 08:10:00,71.0,69.8,29.93,WNW,300,0.0,0.0,96,0.00,,,0.00,0,Wunderground v.1.15,2013-10-05 12:10:00,
2013-10-05 08:20:00,71.1,69.9,29.93,WNW,300,0.0,0.0,96,0.00,,,0.00,9,Wunderground v.1.15,2013-10-05 12:20:00,
2013-10-05 08:25:00,71.2,70.0,29.93,WNW,300,0.0,0.0,96,0.00,,,0.00,9,Wunderground v.1.15,2013-10-05 12:25:00,
2013-10-05 08:35:00,71.3,70.1,29.93,WNW,300,0.0,0.0,96,0.00,,,0.00,18,Wunderground v.1.15,2013-10-05 12:35:00,
2013-10-05 08:40:00,71.4,70.2,29.93,WNW,300,0.0,0.0,96,0.00,,,0.00,19,Wunderground v.1.15,2013-10-05 12:40:00,
2013-10-05 08:45:00,71.4,70.2,29.93,WNW,300,0.0,0.0,96,0.00,,,0.00,28,Wunderground v.1.15,2013-10-05 12:45:00,
2013-10-05 08:55:00,71.6,70.4,29.93,WNW,299,0.0,0.0,96,0.00,,,0.00,30,Wunderground v.1.15,2013-10-05 12:55:00,
2013-10-05 09:05:00,72.1,70.9,29.93,ESE,106,0.0,0.0,96,0.00,,,0.00,39,Wunderground v.1.15,2013-10-05 13:05:00,
2013-10-05 09:15:00,72.5,71.3,29.93,ESE,113,0.0,0.0,96,0.00,,,0.00,54,Wunderground v.1.15,2013-10-05 13:15:00,
2013-10-05 09:25:00,72.6,71.1,29.93,ESE,105,0.0,0.0,95,0.00,,,0.00,44,Wunderground v.1.15,2013-10-05 13:25:00,
2013-10-05 09:35:00,72.6,71.1,29.94,West,271,0.0,0.0,95,0.00,,,0.00,46,Wunderground v.1.15,2013-10-05 13:35:00,
2013-10-05 09:45:00,72.8,71.3,29.94,South,173,0.0,0.0,95,0.00,,,0.00,62,Wunderground v.1.15,2013-10-05 13:45:00,
2013-10-05 09:50:00,72.9,71.4,29.94,South,173,0.0,0.0,95,0.00,,,0.00,70,Wunderground v.1.15,2013-10-05 13:50:00,
2013-10-05 10:00:00,73.2,71.7,29.95,South,173,0.0,0.0,95,0.00,,,0.00,102,Wunderground v.1.15,2013-10-05 14:00:00,
2013-10-05 10:10:00,73.4,71.9,29.95,East,98,0.0,0.0,95,0.00,,,0.00,120,Wunderground v.1.15,2013-10-05 14:10:00,
2013-10-05 10:20:00,73.8,72.0,29.95,ENE,57,0.0,0.0,94,0.00,,,0.00,125,Wunderground v.1.15,2013-10-05 14:20:00,
2013-10-05 10:30:00,74.1,72.3,29.95,East,82,0.0,0.0,94,0.00,,,0.00,179,Wunderground v.1.15,2013-10-05 14:30:00,
2013-10-05 10:35:00,74.4,72.6,29.95,ESE,115,0.0,0.0,94,0.00,,,0.00,185,Wunderground v.1.15,2013-10-05 14:35:00,
2013-10-05 10:45:00,75.1,72.9,29.95,SE,126,0.0,0.0,93,0.00,,,0.00,236,Wunderground v.1.15,2013-10-05 14:45:00,
2013-10-05 10:50:00,75.8,73.3,29.95,SE,126,0.0,0.0,92,0.00,,,0.00,411,Wunderground v.1.15,2013-10-05 14:50:00,
2013-10-05 10:55:00,76.6,73.8,29.95,SE,126,0.0,0.0,91,0.00,,,0.00,167,Wunderground v.1.15,2013-10-05 14:55:00,
2013-10-05 11:05:00,77.5,73.7,29.95,NE,44,0.0,0.0,88,0.00,,,0.00,193,Wunderground v.1.15,2013-10-05 15:05:00,
2013-10-05 11:15:00,78.3,74.5,29.95,West,279,0.0,0.0,88,0.00,,,0.00,128,Wunderground v.1.15,2013-10-05 15:15:00,
2013-10-05 11:20:00,78.6,74.4,29.95,SW,222,0.0,0.0,87,0.00,,,0.00,392,Wunderground v.1.15,2013-10-05 15:20:00,
2013-10-05 11:25:00,78.9,74.4,29.95,South,183,0.0,0.0,86,0.00,,,0.00,216,Wunderground v.1.15,2013-10-05 15:25:00,
2013-10-05 11:35:00,79.4,74.1,29.95,SE,135,0.0,0.0,84,0.00,,,0.00,146,Wunderground v.1.15,2013-10-05 15:35:00,
2013-10-05 11:40:00,79.6,74.3,29.95,South,169,0.0,0.0,84,0.00,,,0.00,127,Wunderground v.1.15,2013-10-05 15:40:00,
2013-10-05 11:50:00,80.0,74.7,29.95,West,270,0.0,0.0,84,0.00,,,0.00,754,Wunderground v.1.15,2013-10-05 15:50:00,
2013-10-05 11:55:00,80.7,75.1,29.95,SSW,209,0.0,0.0,83,0.00,,,0.00,202,Wunderground v.1.15,2013-10-05 15:55:00,
2013-10-05 12:05:00,81.1,74.7,29.95,SE,139,0.0,0.0,81,0.00,,,0.00,243,Wunderground v.1.15,2013-10-05 16:05:00,
2013-10-05 12:15:00,81.6,75.2,29.94,NNE,16,0.0,0.0,81,0.00,,,0.00,269,Wunderground v.1.15,2013-10-05 16:15:00,
2013-10-05 12:20:00,82.3,75.1,29.94,East,98,0.0,0.0,79,0.00,,,0.00,814,Wunderground v.1.15,2013-10-05 16:20:00,
2013-10-05 12:25:00,82.7,74.8,29.94,SSE,162,0.0,0.0,77,0.00,,,0.00,243,Wunderground v.1.15,2013-10-05 16:25:00,
2013-10-05 12:35:00,82.9,74.9,29.94,WSW,237,0.0,0.0,77,0.00,,,0.00,232,Wunderground v.1.15,2013-10-05 16:35:00,
2013-10-05 12:40:00,82.9,74.9,29.94,South,173,0.0,0.0,77,0.00,,,0.00,221,Wunderground v.1.15,2013-10-05 16:40:00,
2013-10-05 12:45:00,83.1,75.5,29.94,NE,53,0.0,0.0,78,0.00,,,0.00,373,Wunderground v.1.15,2013-10-05 16:45:00,
2013-10-05 12:55:00,83.1,75.1,29.93,NNE,16,0.0,0.0,77,0.00,,,0.00,302,Wunderground v.1.15,2013-10-05 16:55:00,
2013-10-05 13:00:00,83.2,74.8,29.93,West,275,0.0,0.0,76,0.00,,,0.00,167,Wunderground v.1.15,2013-10-05 17:00:00,
2013-10-05 13:10:00,83.4,75.4,29.93,West,270,0.0,4.0,77,0.00,,,0.00,213,Wunderground v.1.15,2013-10-05 17:10:00,
2013-10-05 13:20:00,84.7,75.5,29.92,ENE,76,0.0,4.0,74,0.00,,,0.00,877,Wunderground v.1.15,2013-10-05 17:20:00,
2013-10-05 13:30:00,85.7,75.2,29.92,SSW,207,0.0,4.0,71,0.00,,,0.00,874,Wunderground v.1.15,2013-10-05 17:30:00,
2013-10-05 13:35:00,85.4,74.5,29.92,WSW,240,1.0,4.0,70,0.00,,,0.00,213,Wunderground v.1.15,2013-10-05 17:35:00,
2013-10-05 13:40:00,86.1,75.2,29.92,SW,235,1.0,1.0,70,0.00,,,0.00,817,Wunderground v.1.15,2013-10-05 17:40:00,
2013-10-05 13:50:00,87.3,75.4,29.91,SSE,153,0.0,4.0,68,0.00,,,0.00,844,Wunderground v.1.15,2013-10-05 17:50:00,
2013-10-05 13:55:00,87.7,75.8,29.90,East,80,0.0,4.0,68,0.00,,,0.00,891,Wunderground v.1.15,2013-10-05 17:55:00,
2013-10-05 14:00:00,87.8,76.8,29.90,NNW,346,0.0,4.0,70,0.00,,,0.00,884,Wunderground v.1.15,2013-10-05 18:00:00,
2013-10-05 14:10:00,88.1,77.1,29.90,SW,231,0.0,4.0,70,0.00,,,0.00,916,Wunderground v.1.15,2013-10-05 18:10:00,
2013-10-05 14:20:00,88.4,75.1,29.89,SE,125,0.0,4.0,65,0.00,,,0.00,838,Wunderground v.1.15,2013-10-05 18:20:00,
2013-10-05 14:25:00,88.3,74.6,29.89,NE,55,0.0,4.0,64,0.00,,,0.00,160,Wunderground v.1.15,2013-10-05 18:25:00,
2013-10-05 14:30:00,88.2,74.9,29.89,West,261,0.0,4.0,65,0.00,,,0.00,874,Wunderground v.1.15,2013-10-05 18:30:00,
2013-10-05 14:40:00,88.6,74.9,29.88,SW,227,0.0,4.0,64,0.00,,,0.00,192,Wunderground v.1.15,2013-10-05 18:40:00,
2013-10-05 14:50:00,87.4,73.7,29.88,WSW,246,0.0,4.0,64,0.00,,,0.00,209,Wunderground v.1.15,2013-10-05 18:50:00,
2013-10-05 15:00:00,86.3,74.5,29.88,WSW,243,0.0,4.0,68,0.00,,,0.00,118,Wunderground v.1.15,2013-10-05 19:00:00,
2013-10-05 15:05:00,86.0,74.6,29.88,WSW,243,0.0,4.0,69,0.00,,,0.00,204,Wunderground v.1.15,2013-10-05 19:05:00,
2013-10-05 15:10:00,86.2,75.3,29.88,WSW,243,0.0,4.0,70,0.00,,,0.00,246,Wunderground v.1.15,2013-10-05 19:10:00,
2013-10-05 15:20:00,85.8,74.4,29.87,WNW,290,0.0,4.0,69,0.00,,,0.00,193,Wunderground v.1.15,2013-10-05 19:20:00,
2013-10-05 15:30:00,84.1,75.7,29.87,ESE,116,0.0,4.0,76,0.00,,,0.00,199,Wunderground v.1.15,2013-10-05 19:30:00,
2013-10-05 15:35:00,83.3,75.3,29.86,ESE,116,0.0,4.0,77,0.00,,,0.00,223,Wunderground v.1.15,2013-10-05 19:35:00,
2013-10-05 15:40:00,83.0,75.8,29.86,ESE,116,0.0,4.0,79,0.00,,,0.00,251,Wunderground v.1.15,2013-10-05 19:40:00,
2013-10-05 15:45:00,83.3,76.1,29.86,ESE,117,0.0,4.0,79,0.00,,,0.00,735,Wunderground v.1.15,2013-10-05 19:45:00,
2013-10-05 15:55:00,84.7,76.3,29.85,SE,130,0.0,4.0,76,0.00,,,0.00,540,Wunderground v.1.15,2013-10-05 19:55:00,
2013-10-05 16:00:00,85.1,75.9,29.85,South,178,0.0,4.0,74,0.00,,,0.00,480,Wunderground v.1.15,2013-10-05 20:00:00,
2013-10-05 16:10:00,85.8,75.7,29.84,SSE,166,0.0,4.0,72,0.00,,,0.00,121,Wunderground v.1.15,2013-10-05 20:10:00,
2013-10-05 16:15:00,85.7,76.5,29.84,SSE,150,0.0,4.0,74,0.00,,,0.00,206,Wunderground v.1.15,2013-10-05 20:15:00,
2013-10-05 16:25:00,85.2,76.4,29.84,SSE,150,0.0,4.0,75,0.00,,,0.00,227,Wunderground v.1.15,2013-10-05 20:25:00,
2013-10-05 16:30:00,85.3,76.9,29.83,ENE,59,0.0,4.0,76,0.00,,,0.00,629,Wunderground v.1.15,2013-10-05 20:30:00,
2013-10-05 16:40:00,84.0,76.0,29.84,WNW,288,0.0,4.0,77,0.12,,,0.02,70,Wunderground v.1.15,2013-10-05 20:40:00,
2013-10-05 16:50:00,79.2,75.0,29.84,NNE,30,0.0,4.0,87,0.04,,,0.02,114,Wunderground v.1.15,2013-10-05 20:50:00,
2013-10-05 17:00:00,77.8,75.0,29.84,NNE,30,0.0,4.0,91,0.00,,,0.02,179,Wunderground v.1.15,2013-10-05 21:00:00,
2013-10-05 17:10:00,77.9,75.7,29.84,NNE,30,0.0,4.0,93,0.00,,,0.02,84,Wunderground v.1.15,2013-10-05 21:10:00,
2013-10-05 17:20:00,78.3,76.4,29.83,SSE,161,0.0,4.0,94,0.00,,,0.02,77,Wunderground v.1.15,2013-10-05 21:20:00,
2013-10-05 17:25:00,78.4,75.6,29.83,SSE,152,0.0,4.0,91,0.00,,,0.02,121,Wunderground v.1.15,2013-10-05 21:25:00,
2013-10-05 17:35:00,78.4,75.2,29.83,SE,128,0.0,4.0,90,0.00,,,0.02,149,Wunderground v.1.15,2013-10-05 21:35:00,
2013-10-05 17:40:00,78.6,74.4,29.83,WNW,294,0.0,4.0,87,0.00,,,0.02,142,Wunderground v.1.15,2013-10-05 21:40:00,
2013-10-05 17:45:00,78.6,74.7,29.83,WSW,248,0.0,4.0,88,0.00,,,0.02,149,Wunderground v.1.15,2013-10-05 21:45:00,
2013-10-05 17:55:00,78.5,74.0,29.82,West,270,0.0,4.0,86,0.00,,,0.02,77,Wunderground v.1.15,2013-10-05 21:55:00,
2013-10-05 18:05:00,78.3,73.8,29.82,SW,228,0.0,4.0,86,0.00,,,0.02,102,Wunderground v.1.15,2013-10-05 22:05:00,
2013-10-05 18:15:00,78.4,73.9,29.82,SW,220,0.0,4.0,86,0.00,,,0.02,25,Wunderground v.1.15,2013-10-05 22:15:00,
2013-10-05 18:25:00,77.8,74.0,29.82,ESE,103,0.0,4.0,88,0.00,,,0.02,18,Wunderground v.1.15,2013-10-05 22:25:00,
2013-10-05 18:35:00,77.3,73.8,29.82,ESE,103,0.0,4.0,89,0.00,,,0.02,19,Wunderground v.1.15,2013-10-05 22:35:00,
2013-10-05 18:45:00,76.7,73.9,29.83,ESE,103,0.0,4.0,91,0.00,,,0.02,11,Wunderground v.1.15,2013-10-05 22:45:00,
2013-10-05 18:55:00,76.6,73.8,29.83,ESE,103,0.0,4.0,91,0.00,,,0.02,11,Wunderground v.1.15,2013-10-05 22:55:00,
2013-10-05 19:00:00,76.4,73.9,29.83,ESE,103,0.0,0.0,92,0.00,,,0.02,7,Wunderground v.1.15,2013-10-05 23:00:00,
2013-10-05 19:10:00,76.0,73.5,29.83,ESE,103,0.0,2.0,92,0.00,,,0.02,7,Wunderground v.1.15,2013-10-05 23:10:00,
2013-10-05 19:15:00,76.0,73.8,29.83,ESE,103,0.0,2.0,93,0.00,,,0.02,5,Wunderground v.1.15,2013-10-05 23:15:00,
2013-10-05 19:20:00,76.0,73.8,29.84,ESE,103,0.0,2.0,93,0.00,,,0.02,5,Wunderground v.1.15,2013-10-05 23:20:00,
2013-10-05 19:30:00,75.8,73.6,29.83,ESE,103,0.0,2.0,93,0.00,,,0.02,5,Wunderground v.1.15,2013-10-05 23:30:00,
2013-10-05 19:40:00,75.6,73.4,29.84,ESE,103,0.0,2.0,93,0.00,,,0.02,5,Wunderground v.1.15,2013-10-05 23:40:00,
2013-10-05 19:50:00,75.7,73.8,29.84,ESE,103,0.0,2.0,94,0.00,,,0.02,0,Wunderground v.1.15,2013-10-05 23:50:00,
2013-10-05 19:55:00,75.7,73.8,29.84,ESE,103,0.0,2.0,94,0.00,,,0.02,0,Wunderground v.1.15,2013-10-05 23:55:00,
2013-10-05 20:00:00,75.7,74.2,29.85,ESE,103,0.0,2.0,95,0.00,,,0.02,0,Wunderground v.1.15,2013-10-06 00:00:00,
2013-10-05 20:10:00,75.5,73.7,29.85,ESE,103,0.0,2.0,94,0.00,,,0.02,0,Wunderground v.1.15,2013-10-06 00:10:00,
2013-10-05 20:20:00,75.5,74.0,29.85,ESE,103,0.0,2.0,95,0.00,,,0.02,0,Wunderground v.1.15,2013-10-06 00:20:00,
2013-10-05 20:25:00,75.6,74.1,29.85,ESE,103,0.0,2.0,95,0.00,,,0.02,0,Wunderground v.1.15,2013-10-06 00:25:00,
2013-10-05 20:35:00,75.6,74.1,29.85,ESE,103,0.0,2.0,95,0.00,,,0.02,0,Wunderground v.1.15,2013-10-06 00:35:00,
2013-10-05 20:40:00,75.5,74.0,29.85,ESE,104,0.0,2.0,95,0.00,,,0.02,0,Wunderground v.1.15,2013-10-06 00:40:00,
2013-10-05 20:45:00,75.5,74.0,29.85,ESE,104,0.0,2.0,95,0.00,,,0.02,0,Wunderground v.1.15,2013-10-06 00:45:00,
2013-10-05 20:55:00,75.6,74.1,29.86,ESE,104,0.0,2.0,95,0.00,,,0.02,0,Wunderground v.1.15,2013-10-06 00:55:00,
2013-10-05 21:05:00,75.6,73.8,29.86,ESE,104,0.0,2.0,94,0.00,,,0.02,0,Wunderground v.1.15,2013-10-06 01:05:00,
2013-10-05 21:15:00,75.6,74.1,29.87,ESE,104,0.0,2.0,95,0.00,,,0.02,0,Wunderground v.1.15,2013-10-06 01:15:00,
2013-10-05 21:20:00,75.5,74.0,29.86,ESE,104,0.0,2.0,95,0.00,,,0.02,0,Wunderground v.1.15,2013-10-06 01:20:00,
2013-10-05 21:25:00,75.4,73.9,29.86,ESE,104,0.0,2.0,95,0.00,,,0.02,0,Wunderground v.1.15,2013-10-06 01:25:00,
2013-10-05 21:35:00,75.1,73.6,29.86,ESE,104,0.0,2.0,95,0.00,,,0.02,0,Wunderground v.1.15,2013-10-06 01:35:00,
2013-10-05 21:45:00,75.0,73.8,29.86,ESE,104,0.0,2.0,96,0.00,,,0.02,0,Wunderground v.1.15,2013-10-06 01:45:00,
2013-10-05 21:55:00,74.8,73.3,29.87,ESE,104,0.0,2.0,95,0.00,,,0.02,0,Wunderground v.1.15,2013-10-06 01:55:00,
2013-10-05 22:05:00,74.6,73.1,29.87,ESE,104,0.0,2.0,95,0.00,,,0.02,0,Wunderground v.1.15,2013-10-06 02:05:00,
2013-10-05 22:10:00,74.6,73.1,29.87,ESE,104,0.0,2.0,95,0.00,,,0.02,0,Wunderground v.1.15,2013-10-06 02:10:00,
2013-10-05 22:20:00,74.4,73.2,29.87,ESE,104,0.0,2.0,96,0.00,,,0.02,0,Wunderground v.1.15,2013-10-06 02:20:00,
2013-10-05 22:30:00,74.4,73.2,29.87,ESE,104,0.0,2.0,96,0.00,,,0.02,0,Wunderground v.1.15,2013-10-06 02:30:00,
2013-10-05 22:40:00,74.4,73.2,29.87,ESE,104,0.0,2.0,96,0.00,,,0.02,0,Wunderground v.1.15,2013-10-06 02:40:00,
2013-10-05 22:50:00,74.5,73.3,29.87,ESE,104,0.0,2.0,96,0.00,,,0.02,0,Wunderground v.1.15,2013-10-06 02:50:00,
2013-10-05 22:55:00,74.5,73.3,29.87,ESE,104,0.0,2.0,96,0.00,,,0.02,0,Wunderground v.1.15,2013-10-06 02:55:00,
2013-10-05 23:05:00,74.6,73.4,29.87,ESE,104,0.0,2.0,96,0.00,,,0.02,0,Wunderground v.1.15,2013-10-06 03:05:00,
2013-10-05 23:15:00,74.6,73.4,29.87,ESE,104,0.0,2.0,96,0.00,,,0.02,0,Wunderground v.1.15,2013-10-06 03:15:00,
2013-10-05 23:20:00,74.6,73.4,29.87,ESE,104,0.0,2.0,96,0.00,,,0.02,0,Wunderground v.1.15,2013-10-06 03:20:00,
2013-10-05 23:30:00,74.7,73.5,29.87,ESE,104,0.0,2.0,96,0.00,,,0.02,0,Wunderground v.1.15,2013-10-06 03:30:00,
2013-10-05 23:35:00,74.7,73.5,29.87,ESE,104,0.0,2.0,96,0.00,,,0.02,0,Wunderground v.1.15,2013-10-06 03:35:00,
2013-10-05 23:45:00,74.9,73.7,29.87,ESE,104,0.0,2.0,96,0.00,,,0.02,0,Wunderground v.1.15,2013-10-06 03:45:00,
2013-10-05 23:55:00,75.0,73.8,29.86,SW,232,0.0,2.0,96,0.00,,,0.02,0,Wunderground v.1.15,2013-10-06 03:55:00,